Time;durP1;ratioP1;P1;durP2;ratioP2;P2;SDS_P1;SDS_P2;PMS_P1;PMS_P2;Temp;Humidity;BMP_temperature;BMP_pressure;BME280_temperature;BME280_humidity;BME280_pressure;Samples;Min_cycle;Max_cycle;Signal;HPM_P1;HPM_P2
2022/05/18 00:01:53;;;;;;;14.15;10.75;;;17.70;99.90;;;;;;5037237;28;20079;-75
2022/05/18 00:04:18;;;;;;;15.80;10.50;;;17.70;99.90;;;;;;5039205;28;20021;-75
2022/05/18 00:06:44;;;;;;;13.02;11.02;;;17.70;99.90;;;;;;5039484;28;20523;-75
2022/05/18 00:09:10;;;;;;;13.35;9.82;;;17.60;99.90;;;;;;5040424;28;20475;-75
2022/05/18 00:11:35;;;;;;;12.52;10.25;;;17.60;99.90;;;;;;5048228;28;20045;-75
2022/05/18 00:14:01;;;;;;;13.35;11.52;;;17.60;99.90;;;;;;5044507;28;20025;-75
2022/05/18 00:16:27;;;;;;;14.75;10.48;;;17.60;99.90;;;;;;5038555;28;20029;-75
2022/05/18 00:18:53;;;;;;;12.65;9.90;;;17.60;99.90;;;;;;5040062;28;20077;-77
2022/05/18 00:21:19;;;;;;;13.48;10.23;;;17.60;99.90;;;;;;5041055;28;20057;-76
2022/05/18 00:23:45;;;;;;;11.85;10.52;;;17.60;99.90;;;;;;5043248;28;20104;-75
2022/05/18 00:26:10;;;;;;;14.18;11.25;;;17.60;99.90;;;;;;5043758;28;20038;-75
2022/05/18 00:28:36;;;;;;;13.25;10.90;;;17.60;99.90;;;;;;5045210;28;20079;-75
2022/05/18 00:31:03;;;;;;;12.13;10.80;;;17.60;99.90;;;;;;5045229;28;20371;-75
2022/05/18 00:33:29;;;;;;;11.73;10.40;;;17.60;99.90;;;;;;5047577;28;20028;-75
2022/05/18 00:35:56;;;;;;;12.73;9.88;;;17.60;99.90;;;;;;5049757;28;20029;-76
2022/05/18 00:38:22;;;;;;;13.38;10.27;;;17.60;99.90;;;;;;5038942;28;20036;-77
2022/05/18 00:40:49;;;;;;;16.80;11.05;;;17.60;99.90;;;;;;5038974;28;20382;-76
2022/05/18 00:43:38;;;;;;;12.38;9.88;;;17.60;99.90;;;;;;5038736;28;20030;-76
2022/05/18 00:46:07;;;;;;;12.63;10.15;;;17.50;99.90;;;;;;5038765;28;20017;-76
2022/05/18 00:48:33;;;;;;;15.65;10.75;;;17.50;99.90;;;;;;5037339;28;20053;-76
2022/05/18 00:51:03;;;;;;;13.68;11.13;;;17.60;99.90;;;;;;5037031;28;20588;-76
2022/05/18 00:53:35;;;;;;;13.18;10.95;;;17.60;99.90;;;;;;5038103;28;20029;-76
2022/05/18 00:56:06;;;;;;;12.15;10.95;;;17.50;99.90;;;;;;5036282;28;20029;-76
2022/05/18 00:58:41;;;;;;;11.15;10.02;;;17.50;99.90;;;;;;5038371;28;20029;-76
2022/05/18 01:01:08;;;;;;;14.57;10.95;;;17.50;99.90;;;;;;5038056;28;20036;-76
2022/05/18 01:03:46;;;;;;;16.02;11.32;;;17.50;99.90;;;;;;5036728;28;20032;-76
2022/05/18 01:06:15;;;;;;;15.27;11.57;;;17.50;99.90;;;;;;5038203;28;20090;-76
2022/05/18 01:09:06;;;;;;;12.88;10.63;;;17.50;99.90;;;;;;5037943;28;20022;-76
2022/05/18 01:11:33;;;;;;;;;;;17.50;99.90;;;;;;5037273;28;20112;-76
2022/05/18 01:13:59;;;;;;;14.07;10.80;;;17.60;99.90;;;;;;5036888;28;20326;-76
2022/05/18 01:16:27;;;;;;;14.30;10.85;;;17.60;99.90;;;;;;5037604;28;20467;-76
2022/05/18 01:18:55;;;;;;;14.45;11.77;;;17.60;99.90;;;;;;5037309;28;20064;-76
2022/05/18 01:21:23;;;;;;;13.77;10.43;;;17.50;99.90;;;;;;5037675;28;20025;-76
2022/05/18 01:24:10;;;;;;;13.90;10.85;;;17.50;99.90;;;;;;5037229;28;20382;-76
2022/05/18 01:26:46;;;;;;;17.40;11.68;;;17.50;99.90;;;;;;5037512;28;20025;-76
2022/05/18 01:29:14;;;;;;;15.75;11.63;;;17.50;99.90;;;;;;5038794;28;20053;-76
2022/05/18 01:31:56;;;;;;;17.05;11.88;;;17.50;99.90;;;;;;5036473;28;20051;-76
2022/05/18 01:34:25;;;;;;;17.00;11.70;;;17.50;99.90;;;;;;5037295;28;20025;-76
2022/05/18 01:36:52;;;;;;;16.27;12.07;;;17.50;99.90;;;;;;5036512;28;20025;-77
2022/05/18 01:39:56;;;;;;;15.27;12.15;;;17.50;99.90;;;;;;5036524;28;20026;-76
2022/05/18 01:42:31;;;;;;;13.30;11.50;;;17.50;99.90;;;;;;5037311;28;20037;-76
2022/05/18 01:44:57;;;;;;;15.85;12.63;;;17.50;99.90;;;;;;5039338;28;20383;-76
2022/05/18 01:47:23;;;;;;;17.00;12.73;;;17.50;99.90;;;;;;5037234;28;20410;-77
2022/05/18 01:49:50;;;;;;;13.18;11.77;;;17.50;99.90;;;;;;5036988;28;20030;-75
2022/05/18 01:52:16;;;;;;;16.08;12.13;;;17.50;99.90;;;;;;5037454;28;20377;-75
2022/05/18 01:54:45;;;;;;;14.68;12.45;;;17.50;99.90;;;;;;5037050;28;20021;-75
2022/05/18 01:57:12;;;;;;;15.23;13.32;;;17.50;99.90;;;;;;5035237;28;20498;-75
2022/05/18 01:59:38;;;;;;;16.55;12.77;;;17.50;99.90;;;;;;5038359;28;20057;-75
2022/05/18 02:02:06;;;;;;;14.93;11.82;;;17.50;99.90;;;;;;5039227;28;20036;-75
2022/05/18 02:04:33;;;;;;;15.38;12.48;;;17.50;99.90;;;;;;5044495;28;20017;-75
2022/05/18 02:07:00;;;;;;;19.92;12.52;;;17.50;99.90;;;;;;5042421;28;20160;-75
2022/05/18 02:09:26;;;;;;;17.00;12.65;;;17.50;99.90;;;;;;5043241;28;20116;-75
2022/05/18 02:11:52;;;;;;;15.27;12.07;;;17.50;99.90;;;;;;5046888;28;20025;-75
2022/05/18 02:14:18;;;;;;;15.30;13.35;;;17.50;99.90;;;;;;5037575;28;20049;-76
2022/05/18 02:16:44;;;;;;;21.48;13.52;;;17.50;99.90;;;;;;5036711;28;20033;-76
2022/05/18 02:19:09;;;;;;;16.27;13.32;;;17.40;99.90;;;;;;5035894;28;20029;-75
2022/05/18 02:21:35;;;;;;;18.42;13.40;;;17.40;99.90;;;;;;5036224;28;20036;-75
2022/05/18 02:24:01;;;;;;;20.50;13.55;;;17.40;99.90;;;;;;5037086;28;20040;-75
2022/05/18 02:26:27;;;;;;;15.07;13.05;;;17.40;99.90;;;;;;5037367;28;20021;-76
2022/05/18 02:28:52;;;;;;;16.88;13.60;;;17.40;99.90;;;;;;5036610;28;20075;-75
2022/05/18 02:31:18;;;;;;;17.85;13.57;;;17.40;99.90;;;;;;5035419;28;20530;-76
2022/05/18 02:33:44;;;;;;;16.58;13.30;;;17.30;99.90;;;;;;5037456;28;20056;-76
2022/05/18 02:36:11;;;;;;;22.85;14.20;;;17.30;99.90;;;;;;5037342;28;20031;-76
2022/05/18 02:38:37;;;;;;;19.73;14.25;;;17.40;99.90;;;;;;5037614;28;20079;-76
2022/05/18 02:41:04;;;;;;;18.08;13.48;;;17.30;99.90;;;;;;5036657;28;20022;-76
2022/05/18 02:43:30;;;;;;;18.90;13.27;;;17.30;99.90;;;;;;5034734;28;20120;-75
2022/05/18 02:46:05;;;;;;;19.13;13.95;;;17.30;99.90;;;;;;5036576;28;20037;-75
2022/05/18 02:48:31;;;;;;;23.02;13.95;;;17.30;99.90;;;;;;5036195;28;20082;-76
2022/05/18 02:50:56;;;;;;;17.80;14.18;;;17.30;99.90;;;;;;5035094;28;20025;-76
2022/05/18 02:53:22;;;;;;;18.95;13.82;;;17.20;99.90;;;;;;5031979;28;20064;-75
2022/05/18 02:56:06;;;;;;;18.77;13.90;;;17.30;99.90;;;;;;5053160;22;20033;-71
2022/05/18 02:58:36;;;;;;;22.67;15.18;;;17.20;99.90;;;;;;5010805;28;20034;-71
2022/05/18 03:01:04;;;;;;;20.33;15.30;;;17.20;99.90;;;;;;5011863;28;20151;-72
2022/05/18 03:03:30;;;;;;;23.42;16.23;;;17.20;99.90;;;;;;5012958;28;20268;-70
2022/05/18 03:05:55;;;;;;;17.98;15.00;;;17.20;99.90;;;;;;5014125;28;20022;-71
2022/05/18 03:08:21;;;;;;;19.80;15.45;;;17.20;99.90;;;;;;5013775;28;20505;-71
2022/05/18 03:10:46;;;;;;;17.10;15.25;;;17.10;99.90;;;;;;5013658;28;20033;-69
2022/05/18 03:13:12;;;;;;;19.15;15.25;;;17.10;99.90;;;;;;5014150;28;20034;-73
2022/05/18 03:15:37;;;;;;;20.40;15.88;;;17.10;99.90;;;;;;5013845;28;20053;-73
2022/05/18 03:18:03;;;;;;;19.65;16.70;;;17.10;99.90;;;;;;5014082;28;20061;-73
2022/05/18 03:25:57;;;;;;;18.75;14.65;;;17.00;99.90;;;;;;5014007;28;20402;-73
2022/05/18 03:28:22;;;;;;;21.05;16.17;;;17.00;99.90;;;;;;5013553;28;20026;-74
2022/05/18 03:30:48;;;;;;;21.92;15.20;;;17.00;99.90;;;;;;5013979;28;20046;-74
2022/05/18 03:33:13;;;;;;;23.20;15.63;;;17.10;99.90;;;;;;5028536;28;20030;-74
2022/05/18 03:35:39;;;;;;;21.83;17.10;;;17.10;99.90;;;;;;5013179;28;20507;-72
2022/05/18 03:38:05;;;;;;;19.58;15.90;;;17.10;99.90;;;;;;5013740;28;20104;-73
2022/05/18 03:40:36;;;;;;;19.70;15.88;;;17.10;99.90;;;;;;5013362;28;20014;-74
2022/05/18 03:43:03;;;;;;;;;;;17.10;99.90;;;;;;5014122;28;20463;-74
2022/05/18 03:45:28;;;;;;;20.15;16.70;;;17.10;99.90;;;;;;5013377;28;19906;-74
2022/05/18 03:47:54;;;;;;;19.60;16.67;;;17.10;99.90;;;;;;5013314;28;20052;-74
2022/05/18 03:50:19;;;;;;;20.35;17.30;;;17.10;99.90;;;;;;5013467;28;20075;-74
2022/05/18 03:52:45;;;;;;;22.95;16.85;;;17.10;99.90;;;;;;5013773;28;20091;-73
2022/05/18 03:55:10;;;;;;;21.65;16.95;;;17.10;99.90;;;;;;5014054;28;20518;-74
2022/05/18 03:57:36;;;;;;;19.75;15.90;;;17.10;99.90;;;;;;5013122;28;20038;-74
2022/05/18 04:00:03;;;;;;;20.63;17.25;;;17.10;99.90;;;;;;5017210;28;20034;-73
2022/05/18 04:02:29;;;;;;;22.73;16.92;;;17.10;99.90;;;;;;5017362;28;20026;-74
2022/05/18 04:04:54;;;;;;;20.70;15.80;;;17.10;99.90;;;;;;5017641;28;20037;-73
2022/05/18 04:07:20;;;;;;;23.92;16.67;;;17.10;99.90;;;;;;5017194;28;20533;-73
2022/05/18 04:09:47;;;;;;;18.40;16.17;;;17.20;99.90;;;;;;5018005;28;20064;-74
2022/05/18 04:12:13;;;;;;;20.73;16.60;;;17.10;99.90;;;;;;5017979;28;20022;-73
2022/05/18 04:14:39;;;;;;;21.30;17.27;;;17.10;99.90;;;;;;5018406;28;20143;-74
2022/05/18 04:17:04;;;;;;;22.02;16.85;;;17.10;99.90;;;;;;5034665;28;20046;-74
2022/05/18 04:19:30;;;;;;;22.98;17.08;;;17.10;99.90;;;;;;5017166;28;20029;-74
2022/05/18 04:21:56;;;;;;;20.48;17.38;;;17.10;99.90;;;;;;5016743;28;20030;-74
2022/05/18 04:24:21;;;;;;;22.13;17.08;;;17.00;99.90;;;;;;5017058;28;20026;-75
2022/05/18 04:26:47;;;;;;;23.00;16.55;;;17.00;99.90;;;;;;5017151;28;20038;-75
2022/05/18 04:29:13;;;;;;;24.55;16.92;;;17.00;99.90;;;;;;5017166;28;20058;-75
2022/05/18 04:31:39;;;;;;;21.67;17.95;;;17.00;99.90;;;;;;5017982;28;20120;-75
2022/05/18 04:34:04;;;;;;;24.25;17.70;;;17.00;99.90;;;;;;5016911;28;20030;-75
2022/05/18 04:36:30;;;;;;;22.90;17.65;;;17.10;99.90;;;;;;5017035;28;20026;-74
2022/05/18 04:38:55;;;;;;;21.63;16.70;;;17.00;99.90;;;;;;5016741;28;20049;-75
2022/05/18 04:41:21;;;;;;;22.95;17.27;;;17.00;99.90;;;;;;5017222;28;20029;-74
2022/05/18 04:43:46;;;;;;;25.27;18.63;;;17.00;99.90;;;;;;5017784;28;20084;-74
2022/05/18 04:46:12;;;;;;;22.58;17.92;;;17.00;99.90;;;;;;5016186;28;20031;-74
2022/05/18 04:48:37;;;;;;;21.90;17.42;;;17.00;99.90;;;;;;5031371;28;20032;-75
2022/05/18 04:51:05;;;;;;;23.35;18.63;;;17.00;99.90;;;;;;5016998;28;20026;-75
2022/05/18 04:53:32;;;;;;;25.65;19.27;;;17.00;99.90;;;;;;5016329;28;20422;-74
2022/05/18 04:55:58;;;;;;;28.23;18.33;;;17.00;99.90;;;;;;5016150;28;20029;-74
2022/05/18 04:58:23;;;;;;;28.95;19.63;;;17.00;99.90;;;;;;5016548;28;20030;-75
2022/05/18 05:00:59;;;;;;;30.60;19.23;;;16.90;99.90;;;;;;5016853;28;20305;-75
2022/05/18 05:03:26;;;;;;;23.90;19.33;;;16.90;99.90;;;;;;5016131;28;20026;-75
2022/05/18 05:05:52;;;;;;;25.55;19.00;;;16.90;99.90;;;;;;5031529;28;20402;-75
2022/05/18 05:08:17;;;;;;;23.80;18.65;;;16.90;99.90;;;;;;5016555;28;20030;-75
2022/05/18 05:10:43;;;;;;;28.35;20.10;;;16.90;99.90;;;;;;5016856;28;20025;-76
2022/05/18 05:13:08;;;;;;;25.70;18.88;;;16.80;99.90;;;;;;5022587;28;20033;-74
2022/05/18 05:15:35;;;;;;;29.75;20.15;;;16.90;99.90;;;;;;5024991;28;20038;-75
2022/05/18 05:18:00;;;;;;;25.08;20.17;;;16.90;99.90;;;;;;5017102;28;20018;-75
2022/05/18 05:20:26;;;;;;;28.00;20.63;;;16.90;99.90;;;;;;5015397;28;20014;-75
2022/05/18 05:22:52;;;;;;;26.20;20.15;;;16.90;99.90;;;;;;5015646;28;20030;-75
2022/05/18 05:25:17;;;;;;;30.48;19.77;;;17.00;99.90;;;;;;5015728;28;20085;-75
2022/05/18 05:27:43;;;;;;;29.83;20.02;;;17.00;99.90;;;;;;5030893;28;20113;-75
2022/05/18 05:30:09;;;;;;;24.90;19.27;;;17.10;99.90;;;;;;5015092;28;20041;-74
2022/05/18 05:32:35;;;;;;;25.83;19.80;;;17.10;99.90;;;;;;5015356;28;20017;-75
2022/05/18 05:35:01;;;;;;;27.67;21.45;;;17.10;99.90;;;;;;5015578;28;20029;-75
2022/05/18 05:37:27;;;;;;;24.10;19.25;;;17.20;99.90;;;;;;5014919;28;20468;-75
2022/05/18 05:39:52;;;;;;;27.67;20.35;;;17.30;99.90;;;;;;5014887;28;20030;-75
2022/05/18 05:42:18;;;;;;;23.35;18.70;;;17.40;99.90;;;;;;5015387;28;20018;-75
2022/05/18 05:44:43;;;;;;;22.85;17.70;;;17.50;99.90;;;;;;5014921;28;20025;-75
2022/05/18 05:47:11;;;;;;;26.30;19.27;;;17.60;99.90;;;;;;5029916;28;20114;-75
2022/05/18 05:49:38;;;;;;;22.45;17.05;;;17.70;99.90;;;;;;5015439;28;20025;-75
2022/05/18 05:52:04;;;;;;;25.90;19.00;;;17.80;99.90;;;;;;5015551;28;20048;-75
2022/05/18 05:54:30;;;;;;;24.70;18.38;;;17.90;99.90;;;;;;5015443;28;20104;-75
2022/05/18 05:56:56;;;;;;;21.00;17.25;;;18.00;99.90;;;;;;5015081;28;20140;-75
2022/05/18 05:59:21;;;;;;;22.55;17.92;;;18.10;99.90;;;;;;5015530;28;20026;-75
2022/05/18 06:01:47;;;;;;;22.15;17.33;;;18.20;99.90;;;;;;5016084;28;20041;-75
2022/05/18 06:04:14;;;;;;;23.40;17.70;;;18.40;99.90;;;;;;5015553;28;20383;-75
2022/05/18 06:06:40;;;;;;;22.13;17.02;;;18.60;99.90;;;;;;5030293;28;20115;-75
2022/05/18 06:09:09;;;;;;;19.48;17.25;;;18.70;99.90;;;;;;5015056;28;20483;-75
2022/05/18 06:11:36;;;;;;;22.25;16.45;;;18.90;99.90;;;;;;5014731;28;20022;-75
2022/05/18 06:14:02;;;;;;;22.42;16.40;;;19.00;99.90;;;;;;5014726;28;20529;-75
2022/05/18 06:16:28;;;;;;;24.23;17.13;;;19.00;99.90;;;;;;5014681;28;20511;-75
2022/05/18 06:18:53;;;;;;;20.55;16.65;;;19.10;99.90;;;;;;5014999;28;20033;-75
2022/05/18 06:21:19;;;;;;;19.77;16.02;;;19.10;99.90;;;;;;5014061;28;20034;-75
2022/05/18 06:23:45;;;;;;;19.77;16.30;;;19.20;99.90;;;;;;5014802;28;20053;-75
2022/05/18 06:26:10;;;;;;;20.55;15.98;;;19.20;99.90;;;;;;5015683;28;20033;-75
2022/05/18 06:28:36;;;;;;;19.17;15.73;;;19.30;99.90;;;;;;5015425;28;20488;-75
2022/05/18 06:31:04;;;;;;;20.48;14.73;;;19.30;99.90;;;;;;5014959;28;20061;-75
2022/05/18 06:33:29;;;;;;;19.00;14.98;;;19.40;99.90;;;;;;5031105;28;20025;-74
2022/05/18 06:35:55;;;;;;;19.05;14.80;;;19.50;99.90;;;;;;5016106;28;20021;-74
2022/05/18 06:38:20;;;;;;;20.23;15.02;;;19.50;99.90;;;;;;5015594;28;20029;-75
2022/05/18 06:43:31;;;;;;;21.05;14.75;;;19.70;99.90;;;;;;5015110;28;20127;-75
2022/05/18 06:45:57;;;;;;;18.95;15.18;;;19.80;99.90;;;;;;5015044;28;20481;-75
2022/05/18 06:48:23;;;;;;;15.20;13.45;;;19.80;99.90;;;;;;5014792;28;20055;-75
2022/05/18 06:50:48;;;;;;;17.92;13.27;;;19.90;99.90;;;;;;5014984;28;20097;-75
2022/05/18 06:53:14;;;;;;;17.75;13.70;;;20.00;99.90;;;;;;5015191;28;20029;-75
2022/05/18 06:55:39;;;;;;;18.33;15.15;;;20.10;99.90;;;;;;5015889;28;20033;-74
2022/05/18 06:58:05;;;;;;;16.00;12.63;;;20.20;99.90;;;;;;5030851;28;20116;-75
2022/05/18 07:00:30;;;;;;;16.38;12.15;;;20.30;99.90;;;;;;5016444;28;20502;-75
2022/05/18 07:02:56;;;;;;;19.92;13.80;;;20.40;99.90;;;;;;5011581;28;20058;-75
2022/05/18 07:05:22;;;;;;;18.40;12.30;;;20.50;99.90;;;;;;5027338;28;20026;-74
2022/05/18 07:07:47;;;;;;;16.67;12.50;;;20.60;99.90;;;;;;5012885;28;20133;-74
2022/05/18 07:10:13;;;;;;;14.98;12.10;;;20.80;99.90;;;;;;4996365;28;20029;-75
2022/05/18 07:12:39;;;;;;;16.38;12.00;;;20.90;99.90;;;;;;5019815;28;20089;-74
2022/05/18 07:15:06;;;;;;;16.50;12.27;;;21.10;99.90;;;;;;5013110;28;20053;-75
2022/05/18 07:17:32;;;;;;;12.60;10.10;;;21.20;99.90;;;;;;5011625;28;20513;-73
2022/05/18 07:19:58;;;;;;;13.40;10.77;;;21.30;99.90;;;;;;5019766;28;20030;-73
2022/05/18 07:22:23;;;;;;;17.75;12.50;;;21.40;99.90;;;;;;5027502;28;20044;-73
2022/05/18 07:24:50;;;;;;;20.08;11.30;;;21.40;99.90;;;;;;5018230;28;20049;-72
2022/05/18 07:27:16;;;;;;;15.18;10.65;;;21.60;99.90;;;;;;5013905;28;20022;-73
2022/05/18 07:29:42;;;;;;;17.58;10.75;;;21.60;99.90;;;;;;5014005;28;20093;-73
2022/05/18 07:32:08;;;;;;;14.75;10.20;;;21.70;99.90;;;;;;5014225;28;20049;-74
2022/05/18 07:34:34;;;;;;;12.95;8.63;;;21.80;99.90;;;;;;5018002;28;20022;-72
2022/05/18 07:37:01;;;;;;;13.27;8.40;;;21.80;99.90;;;;;;5026752;28;20094;-71
2022/05/18 07:39:30;;;;;;;16.80;8.95;;;21.90;99.90;;;;;;5017635;28;20399;-72
2022/05/18 07:42:01;;;;;;;11.40;9.00;;;22.00;99.90;;;;;;5017608;28;20022;-72
2022/05/18 07:44:28;;;;;;;16.52;8.65;;;22.10;99.90;;;;;;5017569;28;20018;-72
2022/05/18 07:46:55;;;;;;;12.13;8.02;;;22.20;99.90;;;;;;5016694;28;20034;-73
2022/05/18 07:49:22;;;;;;;10.02;7.80;;;22.20;99.90;;;;;;5017344;28;20022;-72
2022/05/18 07:51:49;;;;;;;10.65;7.18;;;22.40;99.90;;;;;;5015407;28;20076;-73
2022/05/18 07:54:17;;;;;;;13.65;9.50;;;22.40;99.90;;;;;;5017536;28;20033;-73
2022/05/18 07:56:43;;;;;;;11.82;7.85;;;22.40;99.90;;;;;;5014792;28;20053;-74
2022/05/18 07:59:11;;;;;;;17.00;8.20;;;22.50;99.90;;;;;;5014801;28;20042;-74
2022/05/18 08:01:39;;;;;;;10.98;8.23;;;22.60;99.90;;;;;;5016182;28;20444;-74
2022/05/18 08:04:05;;;;;;;12.00;7.97;;;22.70;99.90;;;;;;5017160;28;20106;-74
2022/05/18 08:06:33;;;;;;;13.77;7.72;;;22.90;99.90;;;;;;5011808;28;20062;-74
2022/05/18 08:09:00;;;;;;;14.48;8.93;;;22.90;99.90;;;;;;5016963;28;20067;-74
2022/05/18 08:16:55;;;;;;;8.88;7.18;;;23.10;99.90;;;;;;5015778;28;20029;-74
2022/05/18 08:19:22;;;;;;;10.80;7.57;;;23.20;99.90;;;;;;5014905;28;20025;-71
2022/05/18 08:21:48;;;;;;;10.45;7.78;;;23.30;99.90;;;;;;5015890;28;20422;-72
2022/05/18 08:24:15;;;;;;;15.68;7.93;;;23.30;99.90;;;;;;5008488;28;20021;-74
2022/05/18 08:26:42;;;;;;;13.00;8.27;;;23.50;99.90;;;;;;5016707;28;20039;-74
2022/05/18 08:29:10;;;;;;;11.93;7.70;;;23.60;99.90;;;;;;5017068;28;20028;-72
2022/05/18 08:31:36;;;;;;;10.85;8.10;;;23.60;99.90;;;;;;5013788;28;20022;-71
2022/05/18 08:34:03;;;;;;;8.77;6.90;;;23.70;99.90;;;;;;5013669;28;20145;-72
2022/05/18 08:36:31;;;;;;;14.48;7.60;;;23.80;99.90;;;;;;5017106;28;20416;-72
2022/05/18 08:38:58;;;;;;;9.57;7.43;;;23.90;99.90;;;;;;5017408;28;20103;-73
2022/05/18 08:41:42;;;;;;;11.18;6.75;;;24.00;99.90;;;;;;5016851;28;20021;-73
2022/05/18 08:44:35;;;;;;;9.57;6.50;;;24.00;99.90;;;;;;5015921;28;20092;-74
2022/05/18 08:47:05;;;;;;;7.90;6.35;;;24.10;99.90;;;;;;5017034;28;20034;-74
2022/05/18 08:49:40;;;;;;;12.90;7.13;;;24.20;99.90;;;;;;5017072;28;20033;-74
2022/05/18 08:52:07;;;;;;;9.70;7.18;;;24.30;99.90;;;;;;5015372;28;20029;-74
2022/05/18 08:54:58;;;;;;;11.05;5.82;;;24.40;99.90;;;;;;5015163;28;20021;-74
2022/05/18 08:57:33;;;;;;;16.02;6.40;;;24.50;99.90;;;;;;5011930;28;20054;-75
2022/05/18 09:00:31;;;;;;;9.88;5.50;;;24.60;99.90;;;;;;5012481;28;20026;-74
2022/05/18 09:03:20;;;;;;;11.23;5.30;;;24.70;99.90;;;;;;5006721;28;20064;-74
2022/05/18 09:05:54;;;;;;;10.43;5.63;;;24.80;99.90;;;;;;5014044;28;20073;-74
2022/05/18 09:08:25;;;;;;;8.70;5.10;;;24.80;99.90;;;;;;5029788;28;20025;-73
2022/05/18 09:10:52;;;;;;;7.53;5.13;;;24.90;99.90;;;;;;5027728;28;20034;-73
2022/05/18 09:13:19;;;;;;;8.30;4.82;;;25.00;99.90;;;;;;5014231;28;20026;-74
2022/05/18 09:16:16;;;;;;;6.93;4.63;;;25.00;99.90;;;;;;5015510;28;20018;-73
2022/05/18 09:19:09;;;;;;;7.13;4.13;;;25.10;99.90;;;;;;5013822;28;20048;-75
2022/05/18 09:21:55;;;;;;;10.32;4.28;;;25.30;99.90;;;;;;5013965;28;20018;-73
2022/05/18 09:24:49;;;;;;;6.72;4.78;;;25.40;99.90;;;;;;5006457;28;20040;-72
2022/05/18 09:27:50;;;;;;;6.45;4.20;;;25.50;99.90;;;;;;5012353;28;20018;-73
2022/05/18 09:30:27;;;;;;;8.15;3.97;;;25.60;99.90;;;;;;5017381;28;20046;-72
2022/05/18 09:33:13;;;;;;;8.38;5.20;;;25.80;99.90;;;;;;5011838;28;20026;-72
2022/05/18 09:36:04;;;;;;;7.78;4.13;;;25.70;99.90;;;;;;5014801;28;20018;-72
2022/05/18 09:41:12;;;;;;;14.15;8.45;;;25.90;99.90;;;;;;5022317;28;20096;-57
2022/05/18 09:43:48;;;;;;;7.72;4.88;;;25.90;99.90;;;;;;5012857;28;20022;-55
2022/05/18 09:46:20;;;;;;;8.00;4.85;;;26.00;99.90;;;;;;5011439;28;20018;-57
2022/05/18 09:49:00;;;;;;;11.27;5.03;;;26.10;99.90;;;;;;5012314;28;20018;-56
2022/05/18 09:51:27;;;;;;;8.77;4.63;;;26.20;99.90;;;;;;5013811;28;20509;-54
2022/05/18 09:53:53;;;;;;;7.00;3.90;;;26.30;99.90;;;;;;4997149;28;20030;-54
2022/05/18 09:56:33;;;;;;;7.50;4.75;;;26.40;99.90;;;;;;5012988;28;20053;-57
2022/05/18 09:59:06;;;;;;;11.90;4.82;;;26.50;99.90;;;;;;4995959;28;20022;-56
2022/05/18 10:07:32;;;;;;;10.07;4.67;;;26.70;99.90;;;;;;5013321;28;20060;-56
2022/05/18 10:10:09;;;;;;;7.15;4.32;;;26.80;99.90;;;;;;5014060;28;20025;-57
2022/05/18 10:12:43;;;;;;;9.02;4.43;;;26.80;99.90;;;;;;5012078;28;20461;-55
2022/05/18 10:15:22;;;;;;;11.88;4.35;;;26.90;99.90;;;;;;5011764;28;20021;-53
2022/05/18 10:17:53;;;;;;;4.63;4.07;;;26.90;99.90;;;;;;5010184;28;20022;-58
2022/05/18 10:20:29;;;;;;;5.53;3.85;;;26.90;99.90;;;;;;5011025;28;20034;-57
2022/05/18 10:22:57;;;;;;;5.93;4.75;;;27.00;99.90;;;;;;5011227;28;20025;-55
2022/05/18 10:25:42;;;;;;;8.73;4.30;;;27.10;99.90;;;;;;5015924;28;20080;-57
2022/05/18 10:28:25;;;;;;;5.10;4.38;;;27.10;99.90;;;;;;5017645;28;20042;-58
2022/05/18 10:30:58;;;;;;;10.52;4.53;;;27.20;99.90;;;;;;5012099;28;20167;-57
2022/05/18 10:33:35;;;;;;;8.25;3.83;;;27.20;99.90;;;;;;4996799;28;20095;-56
2022/05/18 10:36:16;;;;;;;7.35;3.85;;;27.30;99.90;;;;;;5011887;28;20152;-56
2022/05/18 10:38:52;;;;;;;6.00;3.83;;;27.30;99.90;;;;;;5013134;28;20382;-55
2022/05/18 10:41:24;;;;;;;7.38;4.05;;;27.30;99.90;;;;;;5011889;28;20033;-58
2022/05/18 10:44:03;;;;;;;8.00;4.32;;;27.30;99.90;;;;;;4995010;28;20107;-55
2022/05/18 10:46:40;;;;;;;6.35;3.78;;;27.40;99.90;;;;;;5013156;28;20025;-57
2022/05/18 10:49:13;;;;;;;5.82;3.67;;;27.50;99.90;;;;;;5012340;28;20030;-55
2022/05/18 10:51:38;;;;;;;7.80;3.70;;;27.60;99.90;;;;;;5021659;28;20084;-55
2022/05/18 10:54:24;;;;;;;8.32;4.20;;;27.70;99.90;;;;;;5011266;28;20053;-54
2022/05/18 10:56:51;;;;;;;7.57;3.30;;;27.80;99.90;;;;;;5013070;28;20056;-54
2022/05/18 10:59:58;;;;;;;8.65;3.40;;;27.80;99.90;;;;;;5012874;28;20053;-55
2022/05/18 11:02:43;;;;;;;10.10;3.75;;;27.80;99.90;;;;;;4980974;28;20030;-55
2022/05/18 11:05:27;;;;;;;6.28;3.40;;;27.90;99.90;;;;;;4995333;28;20104;-54
2022/05/18 11:07:53;;;;;;;7.93;3.20;;;27.90;99.90;;;;;;5009661;28;20036;-54
2022/05/18 11:10:20;;;;;;;5.95;3.00;;;28.00;99.90;;;;;;5013336;28;20026;-57
2022/05/18 11:12:52;;;;;;;6.32;3.20;;;28.00;99.90;;;;;;5015755;28;20100;-56
2022/05/18 11:15:45;;;;;;;7.70;3.35;;;28.00;99.90;;;;;;5009704;28;20182;-53
2022/05/18 11:18:42;;;;;;;5.40;3.13;;;28.10;99.90;;;;;;5003969;28;20132;-55
2022/05/18 11:21:40;;;;;;;11.23;6.72;;;28.20;99.90;;;;;;5012525;28;20030;-54
2022/05/18 11:24:38;;;;;;;20.10;9.75;;;28.10;99.90;;;;;;5012452;28;20050;-55
2022/05/18 11:27:46;;;;;;;7.05;5.28;;;28.20;99.90;;;;;;5011923;28;20021;-56
2022/05/18 11:30:18;;;;;;;10.73;7.45;;;28.20;99.90;;;;;;5009807;28;20521;-51
2022/05/18 11:33:01;;;;;;;13.55;8.82;;;28.20;99.90;;;;;;5006582;28;20399;-55
2022/05/18 11:35:38;;;;;;;7.53;5.15;;;28.30;99.90;;;;;;5009106;28;20344;-53
2022/05/18 11:38:19;;;;;;;7.10;4.43;;;28.30;99.90;;;;;;5008042;28;20430;-52
2022/05/18 11:40:56;;;;;;;6.32;4.15;;;28.30;99.90;;;;;;5013002;28;20033;-57
2022/05/18 11:43:33;;;;;;;8.85;5.50;;;28.30;99.90;;;;;;5014058;28;20098;-57
2022/05/18 11:46:15;;;;;;;7.57;3.92;;;28.40;99.90;;;;;;5007704;28;20507;-53
2022/05/18 11:49:03;;;;;;;5.63;3.70;;;28.40;99.90;;;;;;5013292;28;20033;-55
2022/05/18 11:51:44;;;;;;;15.27;4.60;;;28.50;99.90;;;;;;5012470;28;20371;-57
2022/05/18 11:54:35;;;;;;;4.93;3.42;;;28.60;99.90;;;;;;5012633;28;20021;-54
2022/05/18 11:57:29;;;;;;;3.55;3.10;;;28.50;99.90;;;;;;4992508;28;20030;-52
2022/05/18 12:00:12;;;;;;;6.38;3.70;;;28.50;99.90;;;;;;5010990;28;20434;-56
2022/05/18 12:03:02;;;;;;;8.02;4.43;;;28.50;99.90;;;;;;5007561;28;20439;-53
2022/05/18 12:05:59;;;;;;;9.85;3.60;;;28.40;99.90;;;;;;5012840;28;20038;-56
2022/05/18 12:08:46;;;;;;;8.80;3.90;;;28.40;99.90;;;;;;4994757;28;20495;-53
2022/05/18 12:11:49;;;;;;;6.15;3.60;;;28.50;99.90;;;;;;5009000;28;20018;-56
2022/05/18 12:14:14;;;;;;;6.43;3.58;;;28.70;99.90;;;;;;5008288;28;20042;-56
2022/05/18 12:16:54;;;;;;;10.88;2.67;;;28.90;99.90;;;;;;4994483;28;20022;-55
2022/05/18 12:19:30;;;;;;;7.82;3.08;;;29.10;99.90;;;;;;5014253;28;20195;-57
2022/05/18 12:22:03;;;;;;;6.38;3.20;;;29.20;99.90;;;;;;4997163;28;20129;-57
2022/05/18 12:24:29;;;;;;;7.75;2.88;;;29.20;99.90;;;;;;5011499;28;20080;-58
2022/05/18 12:26:55;;;;;;;5.35;3.45;;;29.10;99.90;;;;;;4999091;28;20041;-54
2022/05/18 12:29:24;;;;;;;7.43;4.32;;;29.00;99.90;;;;;;5016855;28;20030;-58
2022/05/18 12:31:52;;;;;;;6.68;3.03;;;28.90;99.90;;;;;;5016819;28;20060;-56
2022/05/18 12:34:41;;;;;;;7.75;3.10;;;28.90;99.90;;;;;;5017083;28;20491;-56
2022/05/18 12:37:45;;;;;;;6.40;3.15;;;28.90;99.90;;;;;;5016646;28;20034;-54
2022/05/18 12:40:31;;;;;;;5.78;3.53;;;29.10;99.90;;;;;;4944696;28;20051;-57
2022/05/18 12:43:13;;;;;;;3.30;2.58;;;29.30;99.90;;;;;;5015023;28;20092;-57
2022/05/18 12:46:04;;;;;;;4.50;2.90;;;29.50;99.90;;;;;;5013275;28;20041;-57
2022/05/18 12:48:44;;;;;;;;;;;29.30;99.90;;;;;;5007903;28;20081;-56
2022/05/18 12:51:28;;;;;;;8.75;3.10;;;29.10;99.90;;;;;;5014211;28;19996;-56
2022/05/18 12:54:11;;;;;;;5.55;3.30;;;29.10;99.90;;;;;;5015408;28;20033;-58
2022/05/18 12:56:36;;;;;;;5.07;3.30;;;29.10;99.90;;;;;;5013938;28;20037;-56
2022/05/18 12:59:21;;;;;;;7.50;2.53;;;29.10;99.90;;;;;;5011561;28;20026;-57
2022/05/18 13:01:51;;;;;;;5.25;3.10;;;29.30;99.90;;;;;;5014221;28;20021;-56
2022/05/18 13:04:17;;;;;;;10.13;2.90;;;29.30;99.90;;;;;;5015072;28;20021;-56
2022/05/18 13:07:19;;;;;;;3.42;2.50;;;29.30;99.90;;;;;;5014661;28;20430;-57
2022/05/18 13:09:46;;;;;;;3.25;2.47;;;29.20;99.90;;;;;;5006348;28;20049;-55
2022/05/18 13:12:18;;;;;;;6.80;2.80;;;29.30;99.90;;;;;;5015079;28;20269;-54
2022/05/18 13:15:24;;;;;;;3.97;2.90;;;29.50;99.90;;;;;;5014504;28;20069;-56
2022/05/18 13:18:00;;;;;;;6.40;3.70;;;29.70;99.90;;;;;;5015176;28;20022;-56
2022/05/18 13:20:26;;;;;;;10.50;3.58;;;29.80;99.90;;;;;;5013607;28;20056;-54